Time;durP1;ratioP1;P1;durP2;ratioP2;P2;SDS_P1;SDS_P2;PMS_P1;PMS_P2;Temp;Humidity;BMP_temperature;BMP_pressure;BME280_temperature;BME280_humidity;BME280_pressure;Samples;Min_cycle;Max_cycle;Signal;HPM_P1;HPM_P2
2022/07/05 00:01:48;;;;;;;2.97;2.30;;;;;;;18.45;95.75;96071.09;5076893;28;20112;-68
2022/07/05 00:04:13;;;;;;;5.28;2.70;;;;;;;18.46;96.42;96068.25;5074718;28;20024;-68
2022/07/05 00:07:17;;;;;;;3.00;2.30;;;;;;;18.40;96.77;96084.13;5082109;28;20034;-68
2022/07/05 00:09:27;;;;;;;2.58;2.45;;;;;;;18.32;96.33;96072.56;5077224;28;20029;-68
2022/07/05 00:11:53;;;;;;;3.53;2.25;;;;;;;18.32;96.51;96071.72;5084164;28;20084;-67
2022/07/05 00:14:18;;;;;;;2.92;2.63;;;;;;;18.30;97.00;96069.25;5090677;28;20073;-68
2022/07/05 00:16:44;;;;;;;2.85;2.55;;;;;;;18.24;97.96;96069.97;5075269;28;20483;-68
2022/07/05 00:19:09;;;;;;;4.20;2.53;;;;;;;18.25;96.94;96070.78;5083302;28;20029;-68
2022/07/05 00:21:35;;;;;;;4.30;2.47;;;;;;;18.22;97.50;96071.97;5084735;28;20110;-68
2022/07/05 00:24:00;;;;;;;2.53;2.42;;;;;;;18.12;98.05;96077.56;5086358;28;20040;-68
2022/07/05 00:26:25;;;;;;;4.15;2.70;;;;;;;18.07;98.81;96079.13;5077038;28;20421;-68
2022/07/05 00:28:51;;;;;;;2.35;2.25;;;;;;;17.99;99.14;96086.13;5082966;28;20017;-68
2022/07/05 00:31:16;;;;;;;2.53;2.33;;;;;;;17.99;98.62;96083.47;5073157;28;20035;-68
2022/07/05 00:33:41;;;;;;;2.20;2.10;;;;;;;18.02;97.86;96075.16;5077228;28;20016;-67
2022/07/05 00:36:07;;;;;;;3.13;2.20;;;;;;;18.04;97.40;96086.47;5086047;28;20418;-68
2022/07/05 00:38:32;;;;;;;3.25;2.13;;;;;;;18.02;97.92;96088.47;5083881;28;20407;-68
2022/07/05 00:40:58;;;;;;;6.10;2.78;;;;;;;18.04;96.84;96085.63;5079158;28;20020;-68
2022/07/05 00:43:23;;;;;;;2.53;2.33;;;;;;;17.93;98.53;96089.50;5076204;28;20069;-68
2022/07/05 00:45:49;;;;;;;2.15;2.05;;;;;;;17.94;97.83;96085.03;5080783;28;20519;-68
2022/07/05 00:48:14;;;;;;;5.95;2.22;;;;;;;17.90;97.89;96082.72;5073144;28;20024;-68
2022/07/05 00:50:41;;;;;;;3.25;2.55;;;;;;;17.95;97.56;96086.69;5081693;28;20501;-68
2022/07/05 00:53:06;;;;;;;2.90;2.30;;;;;;;17.97;96.96;96090.81;5087238;28;20110;-68
2022/07/05 00:55:33;;;;;;;2.28;2.00;;;;;;;17.96;96.86;96088.34;5078975;28;20149;-68
2022/07/05 00:57:58;;;;;;;2.78;2.50;;;;;;;17.83;97.67;96086.28;5081232;28;20062;-68
2022/07/05 01:00:24;;;;;;;2.67;2.25;;;;;;;17.72;98.34;96088.31;5072588;28;20499;-68
2022/07/05 01:02:49;;;;;;;2.80;2.60;;;;;;;17.66;99.58;96093.53;5082573;28;20103;-68
2022/07/05 01:05:14;;;;;;;2.72;2.53;;;;;;;17.67;99.23;96082.72;5081248;28;20615;-68
2022/07/05 01:07:40;;;;;;;2.40;2.20;;;;;;;17.69;98.83;96083.38;5082826;28;20110;-68
2022/07/05 01:10:06;;;;;;;4.22;2.20;;;;;;;17.68;98.88;96084.38;5084989;28;20419;-68
2022/07/05 01:12:31;;;;;;;3.13;2.42;;;;;;;17.73;98.23;96083.84;5074105;28;20032;-67
2022/07/05 01:14:58;;;;;;;3.92;2.35;;;;;;;17.79;97.57;96076.97;5076284;28;20070;-68
2022/07/05 01:17:23;;;;;;;8.35;2.33;;;;;;;17.81;98.22;96080.31;5076448;28;20546;-68
2022/07/05 01:19:51;;;;;;;2.80;2.22;;;;;;;17.72;99.06;96077.69;5073114;28;20104;-68
2022/07/05 01:22:18;;;;;;;2.60;2.40;;;;;;;17.71;98.71;96080.53;5079177;28;20024;-68
2022/07/05 01:24:48;;;;;;;2.65;2.20;;;;;;;17.76;98.58;96084.28;5078083;28;20031;-68
2022/07/05 01:27:14;;;;;;;2.60;2.40;;;;;;;17.67;99.21;96090.69;5082139;28;20109;-67
2022/07/05 01:29:41;;;;;;;2.08;1.95;;;;;;;17.64;99.36;96080.41;5079181;28;20063;-68
2022/07/05 01:32:07;;;;;;;1.98;1.77;;;;;;;17.59;99.29;96077.47;5071921;28;20092;-68
2022/07/05 01:34:37;;;;;;;2.65;2.45;;;;;;;17.54;100.00;96083.28;5093949;28;20020;-68
2022/07/05 01:37:04;;;;;;;2.67;2.47;;;;;;;17.50;99.94;96087.31;5078730;28;20047;-68
2022/07/05 01:39:30;;;;;;;2.60;2.40;;;;;;;17.53;99.11;96081.66;5080369;28;20037;-68
2022/07/05 01:41:55;;;;;;;3.17;2.53;;;;;;;17.45;100.00;96082.53;5080189;28;20024;-68
2022/07/05 01:44:21;;;;;;;3.72;2.22;;;;;;;17.45;99.60;96085.19;5075066;28;20548;-68
2022/07/05 01:46:54;;;;;;;2.20;2.10;;;;;;;17.41;100.00;96083.88;5076511;28;20427;-68
2022/07/05 01:49:21;;;;;;;3.28;2.30;;;;;;;17.38;100.00;96086.06;5082363;28;20036;-68
2022/07/05 01:52:07;;;;;;;3.80;2.20;;;;;;;17.37;100.00;96087.06;5083898;28;20509;-68
2022/07/05 01:54:32;;;;;;;3.20;2.55;;;;;;;17.43;100.00;96097.00;5082516;28;20111;-68
2022/07/05 01:56:58;;;;;;;3.08;2.30;;;;;;;17.47;99.50;96095.66;5082415;28;20174;-68
2022/07/05 01:59:24;;;;;;;2.53;2.33;;;;;;;17.36;100.00;96096.88;5084894;28;20105;-68
2022/07/05 02:01:50;;;;;;;2.85;2.33;;;;;;;17.36;99.93;96088.91;5082335;28;20024;-68
2022/07/05 02:04:17;;;;;;;2.15;2.05;;;;;;;17.35;99.94;96102.38;5077314;28;20048;-68
2022/07/05 02:06:45;;;;;;;2.35;2.22;;;;;;;17.32;99.77;96099.06;5076706;28;20103;-68
2022/07/05 02:09:10;;;;;;;2.58;2.00;;;;;;;17.31;100.00;96110.69;5086975;28;20024;-68
2022/07/05 02:11:36;;;;;;;2.13;2.03;;;;;;;17.31;99.75;96097.41;5084610;28;20081;-67
2022/07/05 02:14:02;;;;;;;2.40;2.08;;;;;;;17.31;100.00;96102.72;5087178;28;20020;-68
2022/07/05 02:16:28;;;;;;;2.85;2.30;;;;;;;17.34;99.63;96101.53;5073209;28;20024;-68
2022/07/05 02:18:54;;;;;;;3.53;2.10;;;;;;;17.36;99.63;96099.53;5081002;28;20441;-68
2022/07/05 02:21:20;;;;;;;2.20;2.10;;;;;;;17.36;100.00;96102.22;5076549;28;20518;-68
2022/07/05 02:23:45;;;;;;;3.97;2.35;;;;;;;17.32;100.00;96096.41;5074548;28;20030;-68
2022/07/05 02:26:11;;;;;;;4.57;2.42;;;;;;;17.31;100.00;96092.06;5088199;28;20421;-68
2022/07/05 02:28:36;;;;;;;5.13;2.55;;;;;;;17.33;100.00;96091.88;5079158;28;20029;-68
2022/07/05 02:31:02;;;;;;;2.45;2.20;;;;;;;17.35;100.00;96094.38;5079021;28;20077;-68
2022/07/05 02:33:27;;;;;;;2.67;2.47;;;;;;;17.35;100.00;96091.72;5081076;28;20031;-68
2022/07/05 02:35:53;;;;;;;2.65;2.45;;;;;;;17.35;100.00;96097.84;5095935;28;20028;-68
2022/07/05 02:38:18;;;;;;;3.53;2.90;;;;;;;17.32;100.00;96092.88;5085146;28;20028;-68
2022/07/05 02:40:43;;;;;;;3.70;2.45;;;;;;;17.28;100.00;96097.75;5079909;28;20024;-68
2022/07/05 02:43:09;;;;;;;2.55;2.35;;;;;;;17.29;100.00;96085.25;5083226;28;20025;-68
2022/07/05 02:45:34;;;;;;;3.75;2.50;;;;;;;17.33;100.00;96090.06;5087058;28;20079;-68
2022/07/05 02:47:59;;;;;;;2.75;2.30;;;;;;;17.28;100.00;96097.75;5081839;28;20029;-68
2022/07/05 02:50:25;;;;;;;2.55;2.35;;;;;;;17.23;100.00;96099.28;5077159;28;20013;-67
2022/07/05 02:52:50;;;;;;;2.90;2.70;;;;;;;17.27;100.00;96100.56;5082248;28;20028;-68
2022/07/05 02:55:16;;;;;;;2.58;2.38;;;;;;;17.23;100.00;96107.25;5085580;28;20048;-68
2022/07/05 02:57:41;;;;;;;5.90;2.72;;;;;;;17.15;100.00;96108.97;5081953;28;20082;-68
2022/07/05 03:00:08;;;;;;;4.10;2.40;;;;;;;17.06;100.00;96109.97;5083835;28;20016;-68
2022/07/05 03:02:33;;;;;;;2.60;2.40;;;;;;;17.00;100.00;96108.00;5075228;28;20028;-68
2022/07/05 03:04:58;;;;;;;4.50;2.42;;;;;;;17.00;100.00;96108.00;5077820;28;20505;-68
2022/07/05 03:07:24;;;;;;;4.82;2.33;;;;;;;16.94;100.00;96111.34;5083786;28;20020;-69
2022/07/05 03:09:49;;;;;;;6.00;2.40;;;;;;;16.94;100.00;96116.66;5078530;28;20031;-68
2022/07/05 03:12:14;;;;;;;4.28;2.65;;;;;;;16.97;100.00;96117.13;5079913;28;20104;-68
2022/07/05 03:14:40;;;;;;;5.50;2.55;;;;;;;16.98;100.00;96102.84;5077747;28;20028;-68
2022/07/05 03:17:05;;;;;;;3.28;2.88;;;;;;;16.96;100.00;96112.00;5078999;28;20111;-68
2022/07/05 03:19:30;;;;;;;2.42;2.33;;;;;;;16.94;100.00;96117.47;5077288;28;20494;-68
2022/07/05 03:21:56;;;;;;;4.80;2.60;;;;;;;16.93;100.00;96117.66;5081149;28;20035;-68
2022/07/05 03:24:21;;;;;;;2.60;2.28;;;;;;;16.95;100.00;96120.97;5080973;28;20376;-68
2022/07/05 03:26:47;;;;;;;2.80;2.60;;;;;;;16.97;100.00;96122.44;5083802;28;20031;-68
2022/07/05 03:29:12;;;;;;;7.15;2.55;;;;;;;16.98;100.00;96115.31;5087204;28;20028;-68
2022/07/05 03:31:37;;;;;;;5.18;2.63;;;;;;;16.96;100.00;96119.97;5090265;28;20043;-68
2022/07/05 03:34:03;;;;;;;3.15;2.60;;;;;;;16.99;100.00;96125.78;5082105;28;20073;-68
2022/07/05 03:36:28;;;;;;;3.88;2.42;;;;;;;17.01;100.00;96122.97;5077696;28;20054;-68
2022/07/05 03:38:53;;;;;;;3.10;2.80;;;;;;;17.07;100.00;96124.13;5084346;28;20028;-68
2022/07/05 03:41:19;;;;;;;5.05;2.45;;;;;;;17.10;100.00;96127.25;5084696;28;20392;-68
2022/07/05 03:43:44;;;;;;;2.67;2.50;;;;;;;17.13;99.86;96126.94;5081230;28;20016;-68
2022/07/05 03:46:10;;;;;;;3.85;3.30;;;;;;;17.10;99.71;96129.09;5078407;28;20469;-68
2022/07/05 03:48:35;;;;;;;2.88;2.67;;;;;;;17.02;100.00;96136.09;5079978;28;20046;-68
2022/07/05 03:51:01;;;;;;;2.75;2.55;;;;;;;16.94;100.00;96133.44;5091124;28;20020;-68
2022/07/05 03:53:26;;;;;;;3.95;2.50;;;;;;;16.90;100.00;96140.09;5090698;28;20085;-67
2022/07/05 03:55:51;;;;;;;2.30;2.20;;;;;;;16.85;100.00;96137.94;5090696;28;20389;-68
2022/07/05 03:58:17;;;;;;;3.92;2.78;;;;;;;16.87;100.00;96143.91;5090657;28;20420;-68
2022/07/05 04:00:42;;;;;;;2.30;2.20;;;;;;;16.90;100.00;96143.56;5090488;28;20027;-68
2022/07/05 04:03:08;;;;;;;3.00;2.63;;;;;;;16.91;100.00;96144.41;5090861;28;20069;-69
2022/07/05 04:05:33;;;;;;;2.97;2.70;;;;;;;16.96;100.00;96154.53;5083024;28;20043;-68
2022/07/05 04:07:58;;;;;;;2.75;2.50;;;;;;;16.99;100.00;96152.38;5080069;28;20080;-68
2022/07/05 04:10:24;;;;;;;3.25;2.97;;;;;;;17.08;100.00;96153.19;5090012;28;20127;-68
2022/07/05 04:12:50;;;;;;;3.63;2.53;;;;;;;17.15;100.00;96158.66;5090520;28;20820;-68
2022/07/05 04:15:15;;;;;;;4.53;2.78;;;;;;;17.14;100.00;96154.34;5089172;28;20111;-68
2022/07/05 04:17:53;;;;;;;2.33;2.22;;;;;;;17.12;100.00;96167.81;5083472;28;20441;-68
2022/07/05 04:20:21;;;;;;;3.50;2.53;;;;;;;17.13;100.00;96163.31;5084388;28;20414;-68
2022/07/05 04:22:46;;;;;;;2.50;2.33;;;;;;;17.15;100.00;96169.31;5097257;28;20050;-68
2022/07/05 04:25:18;;;;;;;3.00;2.78;;;;;;;17.12;100.00;96167.81;5096073;28;20110;-68
2022/07/05 04:27:49;;;;;;;3.47;2.67;;;;;;;17.15;100.00;96166.63;5106525;28;20547;-68
2022/07/05 04:30:15;;;;;;;3.88;2.63;;;;;;;17.11;100.00;96168.81;5080938;28;20081;-68
2022/07/05 04:32:41;;;;;;;3.60;2.60;;;;;;;17.12;100.00;96167.00;5104542;28;20023;-68
2022/07/05 04:35:07;;;;;;;3.08;2.78;;;;;;;17.16;100.00;96165.63;5103829;28;20035;-68
2022/07/05 04:37:33;;;;;;;4.80;2.40;;;;;;;17.10;100.00;96167.16;5106861;28;20054;-68
2022/07/05 04:39:58;;;;;;;2.67;2.47;;;;;;;17.09;100.00;96162.00;5105571;28;20107;-68
2022/07/05 04:42:23;;;;;;;4.53;2.72;;;;;;;17.03;100.00;96169.69;5083376;28;20078;-66
2022/07/05 04:44:49;;;;;;;7.05;2.55;;;;;;;17.02;100.00;96170.69;5078163;28;20037;-65
2022/07/05 04:47:14;;;;;;;2.88;2.50;;;;;;;17.09;100.00;96170.81;5088846;28;20028;-67
2022/07/05 04:49:40;;;;;;;3.05;2.50;;;;;;;17.09;100.00;96173.47;5089772;28;20032;-66
2022/07/05 04:52:06;;;;;;;3.25;2.72;;;;;;;17.06;100.00;96173.00;5067949;28;20028;-64
2022/07/05 04:54:31;;;;;;;3.92;2.90;;;;;;;17.10;100.00;96167.16;5084994;28;20106;-64
2022/07/05 04:56:56;;;;;;;3.10;2.50;;;;;;;17.21;100.00;96175.78;5094286;28;20046;-64
2022/07/05 04:59:22;;;;;;;2.65;2.45;;;;;;;17.22;100.00;96174.78;5106431;28;20122;-65
2022/07/05 05:01:47;;;;;;;2.72;2.53;;;;;;;17.18;100.00;96177.78;5105572;28;20518;-65
2022/07/05 05:04:12;;;;;;;3.33;2.63;;;;;;;17.24;100.00;96183.41;5103740;28;20049;-66
2022/07/05 05:06:38;;;;;;;2.90;2.80;;;;;;;17.38;98.72;96177.38;5107242;28;20429;-66
2022/07/05 05:09:03;;;;;;;7.85;2.50;;;;;;;17.50;97.88;96183.13;5086341;28;20029;-66
2022/07/05 05:11:29;;;;;;;2.75;2.55;;;;;;;17.46;98.35;96185.31;5078820;28;20388;-67
2022/07/05 05:13:54;;;;;;;3.03;2.72;;;;;;;17.45;98.03;96186.31;5089238;28;20031;-67
2022/07/05 05:16:20;;;;;;;3.90;2.40;;;;;;;17.43;98.87;96185.66;5089281;28;20039;-68
2022/07/05 05:18:45;;;;;;;2.35;2.15;;;;;;;17.37;99.26;96191.69;5093779;28;20028;-67
2022/07/05 05:21:11;;;;;;;4.68;2.28;;;;;;;17.40;99.89;96191.34;5093748;28;20024;-67
2022/07/05 05:23:36;;;;;;;2.90;2.60;;;;;;;17.53;99.59;96198.75;5093894;28;20016;-67
2022/07/05 05:26:01;;;;;;;3.03;2.25;;;;;;;17.74;98.23;96192.81;5088699;28;20115;-68
2022/07/05 05:28:27;;;;;;;2.67;2.47;;;;;;;17.92;97.14;96197.06;5084386;28;20016;-67
2022/07/05 05:30:52;;;;;;;3.72;2.42;;;;;;;18.08;95.98;96198.00;5093542;28;20502;-67
2022/07/05 05:33:17;;;;;;;4.60;2.55;;;;;;;18.21;94.71;96192.88;5093377;28;20024;-68
2022/07/05 05:35:43;;;;;;;11.88;3.10;;;;;;;18.35;94.03;96203.78;5093447;28;20399;-68
2022/07/05 05:38:08;;;;;;;3.30;2.90;;;;;;;18.33;93.29;96202.13;5093687;28;20077;-68
2022/07/05 05:40:34;;;;;;;3.45;3.03;;;;;;;18.31;92.30;96203.31;5093298;28;20051;-68
2022/07/05 05:43:00;;;;;;;3.58;2.88;;;;;;;18.34;92.38;96202.94;5093622;28;20032;-68
2022/07/05 05:45:26;;;;;;;5.85;2.42;;;;;;;18.40;91.58;96204.94;5093062;28;20035;-67
2022/07/05 05:47:54;;;;;;;2.85;2.58;;;;;;;18.61;89.93;96203.44;5093261;28;20107;-68
2022/07/05 05:50:28;;;;;;;6.03;2.45;;;;;;;18.43;91.70;96215.22;5093217;28;20031;-68
2022/07/05 05:52:54;;;;;;;5.10;2.72;;;;;;;18.44;91.77;96211.56;5093270;28;20024;-68
2022/07/05 05:55:21;;;;;;;7.78;3.25;;;;;;;18.48;92.31;96214.69;5092922;28;20134;-68
2022/07/05 05:57:47;;;;;;;3.83;2.60;;;;;;;18.52;92.10;96215.16;5093148;28;20078;-68
2022/07/05 06:00:14;;;;;;;2.80;2.60;;;;;;;18.58;91.87;96209.13;5093376;28;20069;-68
2022/07/05 06:02:40;;;;;;;2.35;2.22;;;;;;;18.66;91.55;96206.38;5105695;28;20054;-68
2022/07/05 06:05:06;;;;;;;4.75;2.50;;;;;;;18.72;90.54;96204.84;5092972;28;20092;-68
2022/07/05 06:07:50;;;;;;;2.15;2.00;;;;;;;18.75;90.08;96207.13;5092487;28;20437;-68
2022/07/05 06:10:18;;;;;;;6.03;2.35;;;;;;;18.75;89.25;96197.28;5093068;28;20024;-68
2022/07/05 06:12:44;;;;;;;2.65;2.45;;;;;;;18.87;89.55;96205.66;5093005;28;20024;-68
2022/07/05 06:15:09;;;;;;;2.63;2.22;;;;;;;18.98;89.10;96206.25;5092730;28;20144;-68
2022/07/05 06:17:36;;;;;;;2.50;2.40;;;;;;;19.15;88.68;96207.78;5092736;28;20122;-68
2022/07/05 06:20:05;;;;;;;2.53;2.00;;;;;;;19.21;88.88;96206.19;5092873;28;20084;-68
2022/07/05 06:22:31;;;;;;;3.22;2.85;;;;;;;19.42;88.56;96207.28;5092522;28;20096;-69
2022/07/05 06:24:56;;;;;;;3.67;2.97;;;;;;;19.72;86.96;96204.59;5092478;28;20372;-68
2022/07/05 06:27:22;;;;;;;2.70;2.50;;;;;;;19.90;85.79;96210.38;5091710;28;20028;-69
2022/07/05 06:29:47;;;;;;;3.47;2.67;;;;;;;20.20;83.81;96216.66;5092507;28;20055;-69
2022/07/05 06:32:12;;;;;;;2.75;2.53;;;;;;;20.41;82.26;96214.00;5092800;28;20027;-69
2022/07/05 06:34:38;;;;;;;2.80;2.60;;;;;;;20.65;80.98;96216.44;5092469;28;20105;-69
2022/07/05 06:37:03;;;;;;;6.85;2.67;;;;;;;20.94;79.84;96220.00;5092580;28;20085;-69
2022/07/05 06:39:29;;;;;;;3.13;2.63;;;;;;;21.19;78.62;96223.06;5092579;28;20028;-69
2022/07/05 06:41:54;;;;;;;5.88;2.97;;;;;;;21.35;78.45;96223.78;5092237;28;20027;-69
2022/07/05 06:44:19;;;;;;;5.80;2.60;;;;;;;21.62;77.14;96222.06;5092277;28;20114;-69
2022/07/05 06:46:45;;;;;;;3.75;2.60;;;;;;;21.87;76.66;96224.25;5092403;28;20027;-69
2022/07/05 06:49:10;;;;;;;2.38;2.25;;;;;;;22.10;74.71;96226.59;5092181;28;20031;-69
2022/07/05 06:51:35;;;;;;;2.45;2.25;;;;;;;22.52;73.97;96221.16;5092339;28;20112;-69
2022/07/05 06:54:02;;;;;;;6.47;2.15;;;;;;;22.85;71.24;96225.69;5091979;28;20024;-69
2022/07/05 06:56:27;;;;;;;2.25;2.05;;;;;;;23.14;69.07;96220.09;5092040;28;20068;-69
2022/07/05 06:58:52;;;;;;;1.85;1.75;;;;;;;23.31;67.14;96218.66;5091810;28;20074;-69
2022/07/05 07:01:18;;;;;;;1.80;1.70;;;;;;;23.42;64.52;96221.72;5092412;28;20031;-69
2022/07/05 07:03:43;;;;;;;1.98;1.77;;;;;;;23.67;65.11;96229.94;5091799;28;20483;-69
2022/07/05 07:06:08;;;;;;;3.45;1.58;;;;;;;23.81;62.91;96222.63;5092169;28;20038;-69
2022/07/05 07:11:18;;;;;;;1.50;1.40;;;;;;;24.14;60.46;96216.31;5092184;28;20039;-69
2022/07/05 07:13:43;;;;;;;1.58;1.48;;;;;;;24.13;61.22;96216.53;5091697;28;20099;-70
2022/07/05 07:16:09;;;;;;;4.32;1.65;;;;;;;24.38;61.49;96216.59;5091726;28;20123;-70
2022/07/05 07:18:35;;;;;;;2.72;1.38;;;;;;;24.35;61.79;96216.19;5091731;28;20032;-70
2022/07/05 07:21:01;;;;;;;1.42;1.17;;;;;;;24.53;61.38;96220.81;5091474;28;20475;-69
2022/07/05 07:23:26;;;;;;;3.50;1.63;;;;;;;24.87;59.83;96222.28;5091592;28;20028;-71
2022/07/05 07:25:51;;;;;;;2.53;1.42;;;;;;;25.18;58.09;96215.16;5091364;28;20103;-70
2022/07/05 07:28:17;;;;;;;1.65;1.42;;;;;;;25.61;57.33;96218.06;5091583;28;20030;-70
2022/07/05 07:30:42;;;;;;;1.73;1.60;;;;;;;25.77;54.89;96218.50;5091505;28;20505;-71
2022/07/05 07:33:08;;;;;;;1.58;1.48;;;;;;;25.59;56.71;96212.88;5091266;28;20016;-70
2022/07/05 07:35:33;;;;;;;2.58;1.50;;;;;;;25.98;55.42;96206.41;5091293;28;20516;-71
2022/07/05 07:37:58;;;;;;;1.55;1.42;;;;;;;25.93;54.33;96209.78;5091245;28;20459;-71
2022/07/05 07:40:24;;;;;;;1.70;1.60;;;;;;;26.19;54.01;96210.50;5090204;28;20038;-70
2022/07/05 07:42:49;;;;;;;1.90;1.40;;;;;;;26.46;52.32;96210.94;5091539;28;20039;-70
2022/07/05 07:45:14;;;;;;;1.40;1.30;;;;;;;26.74;51.87;96204.06;5090995;28;20072;-69
2022/07/05 07:47:40;;;;;;;1.65;1.35;;;;;;;26.58;50.39;96197.47;5090937;28;20032;-69
2022/07/05 07:50:06;;;;;;;1.73;1.50;;;;;;;26.83;51.61;96193.75;5090967;28;20112;-69
2022/07/05 07:52:33;;;;;;;2.80;1.60;;;;;;;26.87;49.90;96191.44;5091175;28;20035;-70
2022/07/05 07:55:00;;;;;;;1.35;1.25;;;;;;;27.15;49.87;96193.44;5091110;28;20130;-69
2022/07/05 07:57:25;;;;;;;1.17;1.13;;;;;;;27.01;48.59;96197.44;5090546;28;20051;-70
2022/07/05 07:59:51;;;;;;;1.67;1.17;;;;;;;27.19;49.31;96201.09;5091264;28;20032;-69
2022/07/05 08:02:17;;;;;;;3.00;1.67;;;;;;;27.22;48.89;96195.19;5090640;28;20051;-69
2022/07/05 08:04:42;;;;;;;1.20;1.15;;;;;;;27.26;47.64;96190.97;5090777;28;20028;-69
2022/07/05 08:07:08;;;;;;;3.22;1.42;;;;;;;27.63;47.89;96196.13;5090495;28;20024;-69
2022/07/05 08:09:33;;;;;;;1.35;1.25;;;;;;;27.87;46.50;96193.34;5090732;28;20032;-69
2022/07/05 08:11:59;;;;;;;2.55;1.30;;;;;;;28.13;44.43;96189.25;5090809;28;20020;-69
2022/07/05 08:14:24;;;;;;;5.63;1.40;;;;;;;27.85;45.31;96188.19;5090685;28;20024;-69
2022/07/05 08:16:50;;;;;;;2.63;1.48;;;;;;;27.95;45.95;96187.53;5090568;28;20115;-70
2022/07/05 08:22:01;;;;;;;1.83;1.35;;;;;;;27.93;45.48;96186.97;5090626;28;20501;-69
2022/07/05 08:24:27;;;;;;;1.95;1.35;;;;;;;28.15;44.68;96178.19;5090238;28;20095;-69
2022/07/05 08:26:52;;;;;;;2.75;1.50;;;;;;;28.11;46.00;96174.31;5090374;28;20092;-70
2022/07/05 08:29:17;;;;;;;1.60;1.50;;;;;;;27.92;46.42;96177.22;5090364;28;20491;-70
2022/07/05 08:31:45;;;;;;;4.57;1.55;;;;;;;28.38;45.91;96176.44;5090117;28;20103;-70
2022/07/05 08:34:12;;;;;;;1.27;1.20;;;;;;;28.16;46.18;96174.44;5090233;28;20024;-70
2022/07/05 08:36:38;;;;;;;3.42;1.42;;;;;;;28.48;45.26;96173.94;5090204;28;20541;-70
2022/07/05 08:39:04;;;;;;;4.65;1.52;;;;;;;28.45;45.86;96166.28;5090095;28;20027;-70
2022/07/05 08:41:33;;;;;;;1.42;1.33;;;;;;;28.22;45.55;96164.53;5090110;28;20047;-70
2022/07/05 08:43:59;;;;;;;2.53;1.63;;;;;;;28.52;46.21;96166.16;5090203;28;20024;-70
2022/07/05 08:46:25;;;;;;;1.30;1.30;;;;;;;28.92;44.80;96169.78;5090573;28;20103;-70
2022/07/05 08:48:51;;;;;;;1.65;1.30;;;;;;;28.92;43.62;96169.78;5089766;28;20106;-70
2022/07/05 08:51:23;;;;;;;4.25;1.52;;;;;;;28.90;44.13;96158.38;5089709;28;20039;-70
2022/07/05 08:53:51;;;;;;;3.20;1.40;;;;;;;28.60;44.38;96155.69;5089935;28;20101;-69
2022/07/05 08:56:18;;;;;;;1.75;1.60;;;;;;;28.47;44.54;96152.50;5089830;28;20059;-70
2022/07/05 08:58:43;;;;;;;6.72;1.45;;;;;;;28.50;45.34;96146.59;5089767;28;20036;-69
2022/07/05 09:01:10;;;;;;;7.10;1.48;;;;;;;29.00;44.14;96158.50;5090061;28;20527;-69
2022/07/05 09:03:50;;;;;;;3.00;1.63;;;;;;;28.93;43.87;96149.75;5089866;28;20024;-69
2022/07/05 09:06:18;;;;;;;6.20;1.80;;;;;;;29.16;43.57;96156.81;5089968;28;20024;-69
2022/07/05 09:08:44;;;;;;;1.83;1.73;;;;;;;29.27;43.94;96153.19;5089326;28;20047;-70
2022/07/05 09:11:12;;;;;;;2.05;1.50;;;;;;;29.58;42.91;96155.53;5090018;28;20028;-69
2022/07/05 09:13:40;;;;;;;5.47;1.70;;;;;;;29.65;42.27;96161.56;5089822;28;20028;-69
2022/07/05 09:16:06;;;;;;;2.20;1.70;;;;;;;29.70;42.39;96156.19;5089636;28;20025;-69
2022/07/05 09:18:54;;;;;;;1.63;1.52;;;;;;;29.58;43.13;96163.66;5089833;28;20394;-69
2022/07/05 09:21:23;;;;;;;2.67;1.45;;;;;;;29.56;43.58;96157.66;5089701;28;20039;-69
2022/07/05 09:24:10;;;;;;;1.73;1.30;;;;;;;29.77;42.42;96150.59;5089679;28;20026;-69
2022/07/05 09:26:35;;;;;;;1.73;1.30;;;;;;;29.84;42.61;96142.25;5089439;28;20372;-71
2022/07/05 09:29:06;;;;;;;1.80;1.42;;;;;;;29.98;42.54;96156.22;5089817;28;20032;-69
2022/07/05 09:31:41;;;;;;;3.25;1.50;;;;;;;29.87;43.38;96155.31;5089770;28;20024;-70
2022/07/05 09:34:11;;;;;;;3.15;1.58;;;;;;;29.81;42.11;96151.72;5089738;28;20382;-72
2022/07/05 09:37:01;;;;;;;2.58;1.45;;;;;;;29.84;41.78;96150.38;5089584;28;20155;-69
2022/07/05 09:39:30;;;;;;;2.53;1.40;;;;;;;30.00;41.94;96157.63;5089622;28;20038;-69
2022/07/05 09:42:22;;;;;;;3.03;1.30;;;;;;;29.98;41.32;96150.81;5089276;28;20119;-69
2022/07/05 09:44:50;;;;;;;2.83;1.50;;;;;;;29.95;42.08;96152.13;5089263;28;20016;-69
2022/07/05 09:47:18;;;;;;;6.50;1.77;;;;;;;30.10;41.38;96154.25;5088333;28;20042;-69
2022/07/05 09:49:47;;;;;;;2.15;1.60;;;;;;;30.76;39.70;96151.56;5088853;28;20024;-69
2022/07/05 09:52:33;;;;;;;1.95;1.35;;;;;;;31.33;38.69;96144.63;5088672;28;20024;-70
2022/07/05 09:55:12;;;;;;;4.43;1.60;;;;;;;31.01;39.17;96150.91;5089114;28;20026;-69
2022/07/05 09:57:39;;;;;;;3.33;1.40;;;;;;;31.38;38.14;96147.34;5088704;28;20109;-69
2022/07/05 10:00:12;;;;;;;1.58;1.48;;;;;;;31.13;39.01;96142.56;5088921;28;20496;-70
2022/07/05 10:02:51;;;;;;;1.70;1.42;;;;;;;31.14;39.97;96141.47;5090049;28;20078;-69
2022/07/05 10:05:20;;;;;;;1.83;1.60;;;;;;;30.98;40.05;96143.28;5092268;28;20024;-69
2022/07/05 10:07:48;;;;;;;2.80;1.52;;;;;;;31.19;39.60;96137.97;5092506;28;20020;-69
2022/07/05 10:10:15;;;;;;;1.50;1.40;;;;;;;31.19;40.08;96136.09;5092456;28;20552;-70
2022/07/05 10:12:44;;;;;;;4.55;1.50;;;;;;;31.37;39.67;96143.00;5092172;28;20021;-69
2022/07/05 10:15:12;;;;;;;3.42;1.60;;;;;;;31.09;40.10;96142.28;5092354;28;20035;-69
2022/07/05 10:17:41;;;;;;;1.80;1.70;;;;;;;30.69;40.25;96135.50;5092248;28;20020;-69
2022/07/05 10:20:14;;;;;;;8.25;1.80;;;;;;;31.20;39.07;96136.94;5092281;28;20450;-70
2022/07/05 10:22:41;;;;;;;2.33;1.85;;;;;;;31.19;40.13;96135.25;5074043;28;20044;-69
2022/07/05 10:25:07;;;;;;;1.55;1.45;;;;;;;31.02;38.79;96137.06;5092154;28;20052;-69
2022/07/05 10:27:34;;;;;;;2.03;1.50;;;;;;;31.67;38.06;96144.22;5092436;28;20032;-69
2022/07/05 10:30:01;;;;;;;2.35;1.55;;;;;;;31.63;37.98;96134.94;5091952;28;20098;-69
2022/07/05 10:32:28;;;;;;;1.90;1.25;;;;;;;31.93;37.50;96132.63;5092195;28;20056;-69
2022/07/05 10:34:55;;;;;;;1.95;1.52;;;;;;;31.99;37.51;96128.81;5091682;28;20028;-70
2022/07/05 10:37:25;;;;;;;2.25;1.50;;;;;;;31.93;36.42;96127.97;5092067;28;20551;-69
2022/07/05 10:39:51;;;;;;;2.40;1.52;;;;;;;32.01;36.12;96129.38;5091816;28;20415;-69
2022/07/05 10:42:18;;;;;;;2.28;1.73;;;;;;;32.05;36.88;96135.09;5091769;28;20020;-69
2022/07/05 10:44:43;;;;;;;3.08;1.65;;;;;;;32.18;37.53;96131.88;5091965;28;20024;-69
2022/07/05 10:47:13;;;;;;;1.60;1.50;;;;;;;32.16;35.33;96136.72;5091459;28;20016;-69
2022/07/05 10:49:40;;;;;;;5.45;1.50;;;;;;;32.53;35.27;96141.16;5092013;28;20028;-69
2022/07/05 10:52:23;;;;;;;1.75;1.65;;;;;;;31.91;34.70;96140.25;5092013;28;20024;-69
2022/07/05 10:55:16;;;;;;;1.95;1.42;;;;;;;31.69;36.52;96149.41;5091449;28;20020;-69
2022/07/05 10:57:42;;;;;;;3.83;1.40;;;;;;;32.01;36.04;96134.81;5091573;28;20044;-69
2022/07/05 11:00:09;;;;;;;1.45;1.35;;;;;;;32.24;35.07;96138.13;5091899;28;20081;-69
2022/07/05 11:02:35;;;;;;;4.13;1.58;;;;;;;31.91;36.36;96137.53;5091771;28;20131;-69
2022/07/05 11:05:02;;;;;;;1.45;1.35;;;;;;;32.13;34.68;96131.84;5091417;28;20150;-69
2022/07/05 11:08:02;;;;;;;3.03;1.45;;;;;;;32.04;35.97;96130.75;5091113;28;20110;-69
2022/07/05 11:10:31;;;;;;;1.33;1.10;;;;;;;32.08;35.72;96126.38;5091279;28;20032;-69
2022/07/05 11:12:56;;;;;;;1.63;1.50;;;;;;;32.63;34.12;96128.66;5090992;28;20074;-68
2022/07/05 11:15:22;;;;;;;3.75;1.65;;;;;;;32.57;34.63;96125.91;5091283;28;20690;-69
2022/07/05 11:17:47;;;;;;;1.98;1.88;;;;;;;32.66;34.42;96126.16;5091170;28;20035;-68
2022/07/05 11:20:22;;;;;;;3.25;1.42;;;;;;;32.50;34.33;96125.38;5091039;28;20103;-68
2022/07/05 11:23:09;;;;;;;2.80;1.40;;;;;;;32.30;35.04;96118.78;5090932;28;20027;-69
2022/07/05 11:25:39;;;;;;;1.35;1.25;;;;;;;32.84;34.19;96119.34;5080533;28;20161;-69
2022/07/05 11:28:18;;;;;;;1.63;1.38;;;;;;;32.91;33.27;96118.28;5090804;28;20027;-68
2022/07/05 11:30:46;;;;;;;1.52;1.35;;;;;;;33.15;33.30;96113.84;5091112;28;20107;-69
2022/07/05 11:33:33;;;;;;;1.40;1.30;;;;;;;32.71;34.54;96117.97;5091093;28;20111;-69
2022/07/05 11:35:59;;;;;;;6.10;1.55;;;;;;;33.05;32.96;96118.53;5090623;28;20483;-69
2022/07/05 11:38:26;;;;;;;1.30;1.20;;;;;;;32.99;33.84;96115.81;5090710;28;20133;-68